Tiree Airport

Airport
ICAO code: 
EGPU
IATA Code: 
TRE
Summary
ICAO Region: 
EUR
Territory: 
Location: 
, Inner Hebrides UK
Serving: 
The Island of Tiree
Elevation: 
38 ft
Coordinates: 
Aerial View: 
56° 29' 57.001" N, 6° 52' 9.001" W
Metar
Observation
EGPU 191250Z AUTO 33017KT 9999 FEW027/// 07/05 Q1028 RERA
Station
Tiree
Date/Time
2022-01-19 12:50:00
Wind direction
330°
Wind speed
17 kts
Lowest cloud amount
few clouds
Temperature
7°C
Dew point
5°C
Humidity
87%
QNH
1028 hPa
Weather condition
n/a

The airport is operated by the Highlands and Islands Airports Ltd (HIAL), is licenced and has scheduled passenger services. No aerodrome ATC is available, the airport ATS is provided by an AFISO.

Climatology

Temperate Marine climate/Oceanic climate (Köppen climate classification Cfb).

Runways

Designator Length Width Surface Rops
17/35 600 18 CON No/No
11/29 820 19 ASP No/No
5/23 1402 30 ASP No/No
Airport map: 
Aerial View: 

Accidents and Serious Incidents at or in the vicinity of EGPU

SKYbrary Partners:

Safety knowledge contributed by: